createdAt,value
2023-02-03T00:00:12.241Z,83.02
2023-02-03T00:03:02.547Z,82.04
2023-02-03T00:10:04.491Z,82.12
2023-02-03T00:17:54.724Z,81.96
2023-02-03T00:20:26.300Z,81.85
2023-02-03T00:22:55.353Z,81.85
2023-02-03T00:25:24.407Z,81.79
2023-02-03T00:27:53.275Z,81.35
2023-02-03T00:30:22.546Z,81.38
2023-02-03T00:32:51.937Z,81.06
2023-02-03T00:35:21.187Z,80.98
2023-02-03T00:37:54.762Z,81.52
2023-02-03T00:40:27.539Z,80.53
2023-02-03T00:42:56.764Z,81.16
2023-02-03T00:45:25.828Z,80.58
2023-02-03T00:47:54.836Z,79.99
2023-02-03T00:50:24.801Z,80.27
2023-02-03T00:52:55.128Z,79.89
2023-02-03T00:55:24.231Z,80.36
2023-02-03T00:57:53.095Z,80.69
2023-02-03T01:00:22.945Z,80.41
2023-02-03T01:02:51.824Z,80.13
2023-02-03T01:05:22.219Z,80.47
2023-02-03T01:07:51.076Z,80.20
2023-02-03T01:10:21.717Z,80.17
2023-02-03T01:12:52.515Z,79.83
2023-02-03T01:15:21.975Z,80.22
2023-02-03T01:17:50.960Z,80.42
2023-02-03T01:20:21.597Z,80.23
2023-02-03T01:22:50.467Z,80.17
2023-02-03T01:25:21.011Z,80.13
2023-02-03T01:27:49.867Z,80.43
2023-02-03T01:30:19.977Z,80.19
2023-02-03T01:32:49.640Z,80.45
2023-02-03T01:35:18.744Z,80.40
2023-02-03T01:37:47.565Z,79.81
2023-02-03T01:40:16.786Z,79.98
2023-02-03T01:42:47.001Z,79.61
2023-02-03T01:45:16.103Z,79.76
2023-02-03T01:47:51.789Z,79.14
2023-02-03T01:50:26.312Z,79.05
2023-02-03T01:53:01.532Z,78.78
2023-02-03T01:55:36.930Z,77.77
2023-02-03T01:58:11.946Z,78.48
2023-02-03T02:00:41.521Z,78.91
2023-02-03T02:03:11.686Z,77.74
2023-02-03T02:05:49.485Z,77.66
2023-02-03T02:08:23.174Z,77.58
2023-02-03T02:10:52.896Z,77.23
2023-02-03T02:13:24.513Z,77.40
2023-02-03T02:16:01.585Z,77.96
2023-02-03T02:18:54.346Z,77.60
2023-02-03T02:22:03.473Z,77.44
2023-02-03T02:25:10.597Z,77.20
2023-02-03T02:28:41.010Z,76.95
2023-02-03T02:31:53.903Z,77.96
2023-02-03T02:34:40.059Z,77.26
2023-02-03T02:37:24.608Z,77.87
2023-02-03T02:40:07.726Z,77.86
2023-02-03T02:42:47.787Z,77.24
2023-02-03T02:45:26.414Z,77.65
2023-02-03T02:48:04.774Z,77.11
2023-02-03T02:50:42.442Z,77.86
2023-02-03T02:53:14.941Z,77.72
2023-02-03T02:55:47.620Z,77.83
2023-02-03T02:58:20.197Z,77.85
2023-02-03T03:00:49.572Z,78.04
2023-02-03T03:03:22.892Z,78.49
2023-02-03T03:05:56.026Z,78.24
2023-02-03T03:08:38.743Z,78.48
2023-02-03T03:11:08.746Z,77.95
2023-02-03T03:13:45.455Z,78.51
2023-02-03T03:16:18.783Z,78.60
2023-02-03T03:18:55.472Z,78.92
2023-02-03T03:21:32.222Z,78.89
2023-02-03T03:24:08.754Z,78.87
2023-02-03T03:26:46.605Z,79.13
2023-02-03T03:29:22.449Z,79.12
2023-02-03T03:31:52.166Z,79.08
2023-02-03T03:34:22.571Z,79.61
2023-02-03T03:37:01.174Z,80.01
2023-02-03T03:39:43.048Z,80.11
2023-02-03T03:42:21.919Z,79.68
2023-02-03T03:44:58.971Z,79.96
2023-02-03T03:47:37.676Z,79.91
2023-02-03T03:50:16.846Z,79.73
2023-02-03T03:52:49.423Z,79.86
2023-02-03T03:55:21.235Z,79.72
2023-02-03T03:58:00.450Z,79.92
2023-02-03T04:00:34.163Z,79.82
2023-02-03T04:03:14.166Z,79.66
2023-02-03T04:05:45.736Z,79.16
2023-02-03T04:08:14.937Z,79.17
2023-02-03T04:10:45.445Z,79.40
2023-02-03T04:13:16.089Z,79.47
2023-02-03T04:15:44.966Z,79.63
2023-02-03T04:18:17.007Z,79.48
2023-02-03T04:20:47.215Z,79.25
2023-02-03T04:23:16.383Z,79.50
2023-02-03T04:25:45.155Z,79.73
2023-02-03T04:28:14.356Z,79.66
2023-02-03T04:30:43.186Z,80.44
2023-02-03T04:33:12.231Z,79.63
2023-02-03T04:35:41.089Z,80.36
2023-02-03T04:38:11.539Z,80.96
2023-02-03T04:40:40.636Z,81.19
2023-02-03T04:43:09.951Z,81.39
2023-02-03T04:45:39.329Z,81.40
2023-02-03T04:48:08.396Z,81.19
2023-02-03T04:50:37.427Z,81.59
2023-02-03T04:53:06.659Z,81.62
2023-02-03T04:55:36.801Z,81.85
2023-02-03T04:58:05.854Z,81.26
2023-02-03T05:00:34.682Z,81.49
2023-02-03T05:03:03.900Z,81.64
2023-02-03T05:05:32.758Z,81.92
2023-02-03T05:08:01.901Z,82.63
2023-02-03T05:10:31.106Z,82.99
2023-02-03T05:13:01.857Z,83.30
2023-02-03T05:15:30.740Z,82.78
2023-02-03T05:17:59.897Z,82.64
2023-02-03T05:20:29.521Z,83.18
2023-02-03T05:23:01.262Z,83.32
2023-02-03T05:25:30.238Z,83.51
2023-02-03T05:27:59.517Z,83.48
2023-02-03T05:30:30.053Z,83.54
2023-02-03T05:32:59.315Z,83.52
2023-02-03T05:35:28.303Z,83.37
2023-02-03T05:37:57.570Z,83.44
2023-02-03T05:40:43.847Z,83.47
2023-02-03T05:43:13.375Z,83.66
2023-02-03T05:45:43.714Z,83.67
2023-02-03T05:48:13.485Z,84.15
2023-02-03T05:50:42.528Z,83.89
2023-02-03T05:53:11.761Z,84.14
2023-02-03T05:55:41.441Z,84.08
2023-02-03T05:58:10.636Z,83.47
2023-02-03T06:00:39.853Z,83.94
2023-02-03T06:03:10.673Z,83.89
2023-02-03T06:05:41.374Z,84.00
2023-02-03T06:08:11.175Z,83.91
2023-02-03T06:10:40.125Z,83.58
2023-02-03T06:13:14.837Z,83.72
2023-02-03T06:15:45.208Z,83.84
2023-02-03T06:18:15.745Z,84.06
2023-02-03T06:20:44.559Z,83.74
2023-02-03T06:23:13.721Z,83.72
2023-02-03T06:25:42.537Z,83.92
2023-02-03T06:28:11.771Z,83.60
2023-02-03T06:30:40.689Z,83.80
2023-02-03T06:33:09.921Z,83.40
2023-02-03T06:35:40.096Z,83.28
2023-02-03T06:38:09.225Z,83.48
2023-02-03T06:40:38.425Z,83.73
2023-02-03T06:43:07.646Z,83.29
2023-02-03T06:45:36.451Z,83.59
2023-02-03T06:48:05.929Z,83.28
2023-02-03T06:50:35.968Z,83.41
2023-02-03T06:53:06.516Z,83.50
2023-02-03T06:55:35.471Z,83.39
2023-02-03T06:58:04.664Z,83.24
2023-02-03T07:00:33.553Z,83.09
2023-02-03T07:03:03.149Z,83.04
2023-02-03T07:05:32.522Z,82.97
2023-02-03T07:08:01.619Z,82.95
2023-02-03T07:10:31.824Z,82.72
2023-02-03T07:13:04.951Z,82.62
2023-02-03T07:15:34.541Z,83.02
2023-02-03T07:18:03.668Z,82.70
2023-02-03T07:20:33.071Z,82.13
2023-02-03T07:23:02.228Z,81.62
2023-02-03T07:25:32.795Z,81.63
2023-02-03T07:28:02.931Z,81.27
2023-02-03T07:30:31.861Z,81.10
2023-02-03T07:33:01.069Z,80.70
2023-02-03T07:35:29.988Z,80.64
2023-02-03T07:37:59.106Z,81.01
2023-02-03T07:40:28.368Z,80.16
2023-02-03T07:42:59.882Z,79.92
2023-02-03T07:45:28.962Z,79.72
2023-02-03T07:47:58.100Z,79.44
2023-02-03T07:50:27.447Z,78.80
2023-02-03T07:52:56.912Z,78.21
2023-02-03T07:55:25.942Z,78.08
2023-02-03T07:57:55.657Z,77.95
2023-02-03T08:00:26.812Z,77.03
2023-02-03T08:02:56.156Z,77.03
2023-02-03T08:05:25.172Z,75.52
2023-02-03T08:07:54.295Z,75.96
2023-02-03T08:10:23.264Z,75.72
2023-02-03T08:12:54.698Z,75.22
2023-02-03T08:15:25.091Z,75.23
2023-02-03T08:17:54.285Z,74.95
2023-02-03T08:20:23.167Z,74.32
2023-02-03T08:22:52.288Z,74.16
2023-02-03T08:25:22.733Z,73.10
2023-02-03T08:27:52.009Z,72.60
2023-02-03T08:30:20.974Z,71.36
2023-02-03T08:32:51.767Z,71.31
2023-02-03T08:35:20.813Z,71.55
2023-02-03T08:37:49.986Z,71.19
2023-02-03T08:40:19.581Z,70.71
2023-02-03T08:42:48.736Z,70.21
2023-02-03T08:45:17.655Z,68.98
2023-02-03T08:47:46.826Z,69.53
2023-02-03T08:50:17.385Z,69.90
2023-02-03T08:52:46.525Z,69.25
2023-02-03T08:55:15.444Z,67.79
2023-02-03T08:57:44.813Z,67.71
2023-02-03T09:00:15.521Z,68.35
2023-02-03T09:02:44.616Z,67.46
2023-02-03T09:05:14.095Z,66.77
2023-02-03T09:07:44.655Z,66.92
2023-02-03T09:10:13.498Z,65.56
2023-02-03T09:12:42.582Z,63.49
2023-02-03T09:15:12.111Z,64.42
2023-02-03T09:17:41.218Z,65.15
2023-02-03T09:20:13.426Z,64.24
2023-02-03T09:22:44.019Z,64.82
2023-02-03T09:25:13.968Z,64.99
2023-02-03T09:27:43.115Z,65.08
2023-02-03T09:30:14.554Z,64.29
2023-02-03T09:32:43.713Z,63.87
2023-02-03T09:35:12.506Z,64.04
2023-02-03T09:37:41.617Z,63.58
2023-02-03T09:40:23.660Z,62.27
2023-02-03T09:43:09.991Z,60.88
2023-02-03T09:45:39.042Z,60.57
2023-02-03T09:48:17.583Z,61.11
2023-02-03T09:50:49.542Z,60.93
2023-02-03T09:53:31.891Z,59.85
2023-02-03T09:56:02.511Z,59.38
2023-02-03T09:58:35.593Z,59.20
2023-02-03T10:01:13.360Z,60.11
2023-02-03T10:03:50.232Z,58.77
2023-02-03T10:06:32.238Z,58.73
2023-02-03T10:09:27.295Z,57.68
2023-02-03T10:12:25.356Z,57.48
2023-02-03T10:15:21.926Z,56.77
2023-02-03T10:17:59.184Z,56.93
2023-02-03T10:20:39.937Z,57.00
2023-02-03T10:23:15.709Z,58.05
2023-02-03T10:25:57.184Z,57.60
2023-02-03T10:28:32.882Z,58.61
2023-02-03T10:31:07.183Z,58.01
2023-02-03T10:33:36.175Z,59.33
2023-02-03T10:36:19.732Z,58.82
2023-02-03T10:39:03.667Z,59.12
2023-02-03T10:41:34.407Z,59.43
2023-02-03T10:44:13.238Z,59.40
2023-02-03T10:46:45.427Z,58.56
2023-02-03T10:49:16.533Z,58.74
2023-02-03T10:51:52.527Z,59.55
2023-02-03T10:54:35.232Z,59.21
2023-02-03T10:57:07.950Z,60.19
2023-02-03T10:59:44.597Z,61.12
2023-02-03T11:02:25.991Z,61.20
2023-02-03T11:05:19.502Z,60.35
2023-02-03T11:07:49.600Z,59.97
2023-02-03T11:10:35.832Z,60.44
2023-02-03T11:13:20.428Z,61.29
2023-02-03T11:15:58.848Z,61.60
2023-02-03T11:18:46.382Z,60.81
2023-02-03T11:21:19.272Z,61.18
2023-02-03T11:23:54.794Z,61.25
2023-02-03T11:26:29.074Z,61.42
2023-02-03T11:29:01.636Z,61.61
2023-02-03T11:31:35.996Z,61.04
2023-02-03T11:34:08.856Z,61.58
2023-02-03T11:36:37.766Z,62.15
2023-02-03T11:39:27.970Z,61.69
2023-02-03T11:41:57.789Z,61.70
2023-02-03T11:44:31.361Z,62.36
2023-02-03T11:47:08.883Z,61.57
2023-02-03T11:50:08.591Z,61.14
2023-02-03T11:53:05.433Z,61.30
2023-02-03T11:55:53.445Z,61.25
2023-02-03T11:59:00.951Z,60.64
2023-02-03T12:02:21.376Z,60.40
2023-02-03T12:05:15.747Z,59.63
2023-02-03T12:08:19.381Z,60.47
2023-02-03T12:11:07.577Z,60.56
2023-02-03T12:14:05.913Z,59.86
2023-02-03T12:17:02.768Z,58.30
2023-02-03T12:19:52.430Z,59.31
2023-02-03T12:22:33.738Z,59.86
2023-02-03T12:25:24.366Z,60.09
2023-02-03T12:28:05.644Z,60.17
2023-02-03T12:30:42.418Z,60.65
2023-02-03T12:33:21.323Z,61.22
2023-02-03T12:35:59.596Z,61.87
2023-02-03T12:38:41.298Z,60.99
2023-02-03T12:41:20.049Z,61.58
2023-02-03T12:43:55.361Z,61.22
2023-02-03T12:46:30.946Z,61.96
2023-02-03T12:49:11.054Z,61.65
2023-02-03T12:51:48.437Z,62.17
2023-02-03T12:54:36.258Z,62.74
2023-02-03T12:57:19.626Z,64.33
2023-02-03T13:00:12.338Z,65.86
2023-02-03T13:02:59.147Z,67.51
2023-02-03T13:05:38.743Z,68.94
2023-02-03T13:08:24.693Z,67.60
2023-02-03T13:11:05.086Z,68.90
2023-02-03T13:13:43.176Z,70.13
2023-02-03T13:16:17.665Z,72.15
2023-02-03T13:18:56.800Z,74.01
2023-02-03T13:21:25.664Z,76.05
2023-02-03T13:23:56.552Z,78.46
2023-02-03T13:27:02.179Z,80.37
2023-02-03T13:29:58.038Z,81.99
2023-02-03T13:32:55.406Z,83.41
2023-02-03T13:35:53.915Z,85.46
2023-02-03T13:38:52.615Z,86.91
2023-02-03T13:41:36.466Z,87.82
2023-02-03T13:44:08.917Z,88.41
2023-02-03T13:46:38.546Z,89.43
2023-02-03T13:49:09.979Z,90.26
2023-02-03T13:51:47.369Z,91.02
2023-02-03T13:54:25.395Z,91.82
2023-02-03T13:57:02.339Z,92.23
2023-02-03T13:59:43.917Z,92.99
2023-02-03T14:02:44.330Z,93.23
2023-02-03T14:05:44.415Z,93.78
2023-02-03T14:08:53.732Z,94.94
2023-02-03T14:11:43.647Z,95.28
2023-02-03T14:15:04.210Z,95.07
2023-02-03T14:17:58.550Z,95.25
2023-02-03T14:21:11.430Z,96.09
2023-02-03T14:23:53.471Z,96.54
2023-02-03T14:26:34.102Z,96.32
2023-02-03T14:29:04.449Z,97.27
2023-02-03T14:32:00.015Z,97.28
2023-02-03T14:34:36.044Z,97.82
2023-02-03T14:37:19.353Z,97.55
2023-02-03T14:40:18.976Z,98.08
2023-02-03T14:43:20.266Z,98.17
2023-02-03T14:46:56.919Z,98.20
2023-02-03T14:49:45.988Z,98.15
2023-02-03T14:52:29.772Z,97.98
2023-02-03T14:55:31.990Z,97.74
2023-02-03T14:58:05.394Z,97.87
2023-02-03T15:00:37.631Z,98.65
2023-02-03T15:03:30.076Z,98.78
2023-02-03T15:06:03.629Z,99.16
2023-02-03T15:08:42.363Z,98.94
2023-02-03T15:11:35.004Z,99.14
2023-02-03T15:14:22.580Z,98.55
2023-02-03T15:16:59.547Z,99.17
2023-02-03T15:19:35.335Z,99.12
2023-02-03T15:22:19.973Z,99.46
2023-02-03T15:24:50.999Z,99.37
2023-02-03T15:27:25.986Z,99.03
2023-02-03T15:29:57.305Z,99.16
2023-02-03T15:32:34.411Z,99.09
2023-02-03T15:35:11.902Z,99.57
2023-02-03T15:37:46.829Z,100.00
2023-02-03T15:40:20.790Z,100.00
2023-02-03T15:42:59.160Z,99.81
2023-02-03T15:45:35.856Z,100.00
2023-02-03T15:48:13.157Z,99.55
2023-02-03T15:50:48.301Z,99.40
2023-02-03T15:53:26.187Z,100.00
2023-02-03T15:56:04.378Z,99.40
2023-02-03T15:58:45.635Z,99.42
2023-02-03T16:01:20.486Z,100.00
2023-02-03T16:03:53.870Z,100.00
2023-02-03T16:06:30.560Z,100.00
2023-02-03T16:09:00.819Z,99.99
2023-02-03T16:11:36.406Z,99.51
2023-02-03T16:14:07.976Z,99.74
2023-02-03T16:16:43.701Z,99.96
2023-02-03T16:19:23.873Z,99.87
2023-02-03T16:21:57.280Z,99.57
2023-02-03T16:24:40.915Z,100.00
2023-02-03T16:27:34.047Z,99.85
2023-02-03T16:30:43.507Z,100.00
2023-02-03T16:33:35.280Z,100.00
2023-02-03T16:36:31.664Z,100.00
2023-02-03T16:39:28.517Z,99.64
2023-02-03T16:42:18.022Z,99.85
2023-02-03T16:45:04.663Z,100.00
2023-02-03T16:47:51.578Z,100.00
2023-02-03T16:50:41.505Z,99.94
2023-02-03T16:53:16.285Z,100.00
2023-02-03T16:55:48.291Z,100.00
2023-02-03T16:58:17.539Z,100.00
2023-02-03T17:00:50.235Z,99.67
2023-02-03T17:03:23.083Z,99.69
2023-02-03T17:05:53.433Z,99.76
2023-02-03T17:08:25.545Z,99.71
2023-02-03T17:10:56.416Z,99.68
2023-02-03T17:13:25.609Z,99.86
2023-02-03T17:15:54.682Z,99.81
2023-02-03T17:18:24.297Z,99.43
2023-02-03T17:20:53.349Z,99.42
2023-02-03T17:23:22.629Z,99.35
2023-02-03T17:25:52.044Z,99.21
2023-02-03T17:28:22.573Z,99.40
2023-02-03T17:30:59.072Z,99.44
2023-02-03T17:33:29.147Z,99.04
2023-02-03T17:36:05.218Z,98.96
2023-02-03T17:55:22.479Z,99.24
2023-02-03T17:57:51.529Z,98.78
2023-02-03T18:00:22.506Z,98.97
2023-02-03T18:02:52.786Z,98.70
2023-02-03T18:05:22.696Z,98.55
2023-02-03T18:07:51.536Z,99.00
2023-02-03T18:10:20.787Z,98.76
2023-02-03T18:12:49.594Z,98.14
2023-02-03T18:15:18.920Z,98.79
2023-02-03T18:17:49.119Z,98.95
2023-02-03T18:20:18.593Z,98.69
2023-02-03T18:22:47.523Z,98.16
2023-02-03T18:25:17.418Z,98.24
2023-02-03T18:27:46.374Z,98.11
2023-02-03T18:30:18.281Z,98.02
2023-02-03T18:32:51.653Z,97.82
2023-02-03T18:35:20.793Z,97.66
2023-02-03T18:37:49.599Z,98.10
2023-02-03T18:40:19.373Z,98.11
2023-02-03T18:42:48.235Z,97.76
2023-02-03T18:45:17.447Z,97.63
2023-02-03T18:47:46.386Z,98.11
2023-02-03T18:50:18.096Z,97.86
2023-02-03T18:52:47.018Z,97.61
2023-02-03T18:55:16.439Z,97.61
2023-02-03T18:57:45.494Z,97.17
2023-02-03T19:00:16.611Z,97.07
2023-02-03T19:02:45.573Z,96.86
2023-02-03T19:05:14.870Z,96.89
2023-02-03T19:07:45.079Z,96.87
2023-02-03T19:10:14.265Z,96.92
2023-02-03T19:12:43.192Z,96.83
2023-02-03T19:15:12.765Z,97.36
2023-02-03T19:17:41.681Z,96.47
2023-02-03T19:20:12.785Z,96.75
2023-02-03T19:22:41.662Z,96.22
2023-02-03T19:25:13.325Z,95.99
2023-02-03T19:27:42.256Z,96.35
2023-02-03T19:30:13.657Z,96.41
2023-02-03T19:32:42.541Z,96.23
2023-02-03T19:35:12.735Z,96.21
2023-02-03T19:37:41.601Z,96.00
2023-02-03T19:40:13.193Z,96.17
2023-02-03T19:42:42.233Z,96.12
2023-02-03T19:45:12.865Z,95.79
2023-02-03T19:47:41.760Z,96.13
2023-02-03T19:50:11.521Z,96.19
2023-02-03T19:52:40.438Z,95.79
2023-02-03T19:55:12.271Z,95.82
2023-02-03T19:57:41.161Z,96.09
2023-02-03T20:00:13.065Z,96.11
2023-02-03T20:02:47.258Z,95.94
2023-02-03T20:05:17.588Z,95.56
2023-02-03T20:07:46.876Z,95.13
2023-02-03T20:10:18.053Z,95.29
2023-02-03T20:12:47.011Z,95.53
2023-02-03T20:15:16.106Z,95.53
2023-02-03T20:17:44.887Z,95.09
2023-02-03T20:20:14.169Z,94.42
2023-02-03T20:22:43.156Z,94.65
2023-02-03T20:25:12.318Z,95.28
2023-02-03T20:27:43.299Z,94.80
2023-02-03T20:30:14.339Z,94.87
2023-02-03T20:32:43.286Z,94.38
2023-02-03T20:35:12.834Z,94.82
2023-02-03T20:37:41.855Z,94.74
2023-02-03T20:40:17.914Z,94.61
2023-02-03T20:42:48.492Z,94.97
2023-02-03T20:45:19.296Z,94.21
2023-02-03T20:47:48.731Z,94.23
2023-02-03T20:50:23.641Z,93.95
2023-02-03T20:52:54.744Z,94.30
2023-02-03T20:55:24.979Z,94.13
2023-02-03T20:57:56.903Z,93.64
2023-02-03T21:00:28.072Z,94.06
2023-02-03T21:03:14.982Z,93.89
2023-02-03T21:05:45.664Z,93.69
2023-02-03T21:08:16.497Z,93.58
2023-02-03T21:10:47.409Z,93.31
2023-02-03T21:13:23.827Z,93.89
2023-02-03T21:15:56.004Z,93.96
2023-02-03T21:18:35.513Z,93.96
2023-02-03T21:21:06.183Z,93.58
2023-02-03T21:23:41.067Z,94.08
2023-02-03T21:26:22.811Z,94.28
2023-02-03T21:28:55.348Z,94.40
2023-02-03T21:31:28.425Z,94.19
2023-02-03T21:33:59.720Z,93.35
2023-02-03T21:36:35.353Z,93.96
2023-02-03T21:39:09.817Z,93.77
2023-02-03T21:41:39.030Z,93.82
2023-02-03T21:44:28.476Z,93.54
2023-02-03T21:46:58.114Z,93.33
2023-02-03T21:49:26.912Z,92.78
2023-02-03T21:51:56.014Z,92.85
2023-02-03T21:54:30.479Z,92.97
2023-02-03T21:57:00.082Z,93.10
2023-02-03T21:59:42.269Z,92.75
2023-02-03T22:02:56.849Z,92.63
2023-02-03T22:05:25.891Z,91.93
2023-02-03T22:07:55.623Z,92.40
2023-02-03T22:10:24.442Z,93.10
2023-02-03T22:12:53.617Z,92.51
2023-02-03T22:15:23.863Z,92.39
2023-02-03T22:17:52.959Z,92.56
2023-02-03T22:20:21.758Z,92.85
2023-02-03T22:22:50.848Z,91.62
2023-02-03T22:25:19.732Z,92.01
2023-02-03T22:27:49.071Z,92.07
2023-02-03T22:30:18.236Z,92.83
2023-02-03T22:32:48.689Z,92.94
2023-02-03T22:35:17.754Z,92.31
2023-02-03T22:37:46.933Z,92.38
2023-02-03T22:40:15.846Z,91.14
2023-02-03T22:42:45.380Z,92.47
2023-02-03T22:45:14.738Z,93.08
2023-02-03T22:47:44.446Z,93.15
2023-02-03T22:50:17.442Z,92.24
2023-02-03T22:52:50.824Z,92.61
2023-02-03T22:55:19.861Z,92.49
2023-02-03T22:57:50.011Z,92.80
2023-02-03T23:00:24.096Z,92.98
2023-02-03T23:02:53.389Z,92.62
2023-02-03T23:05:24.238Z,93.17
2023-02-03T23:07:54.109Z,94.43
2023-02-03T23:10:25.988Z,94.83
2023-02-03T23:12:55.042Z,95.20
2023-02-03T23:15:23.948Z,94.27
2023-02-03T23:17:53.051Z,94.84
2023-02-03T23:20:23.597Z,94.36
2023-02-03T23:22:52.717Z,94.36
2023-02-03T23:25:21.517Z,94.23
2023-02-03T23:27:50.693Z,93.76
2023-02-03T23:30:19.804Z,93.61
2023-02-03T23:32:48.876Z,93.73
2023-02-03T23:35:35.606Z,94.26
2023-02-03T23:38:06.070Z,94.05
2023-02-03T23:40:34.993Z,92.88
2023-02-03T23:43:04.155Z,93.96
2023-02-03T23:45:32.976Z,94.02
2023-02-03T23:48:02.050Z,93.48
2023-02-03T23:50:31.208Z,93.62
2023-02-03T23:53:00.539Z,94.39
2023-02-03T23:55:31.474Z,94.14
2023-02-03T23:58:00.808Z,94.35
